Time;durP1;ratioP1;P1;durP2;ratioP2;P2;SDS_P1;SDS_P2;PMS_P1;PMS_P2;Temp;Humidity;BMP_temperature;BMP_pressure;BME280_temperature;BME280_humidity;BME280_pressure;Samples;Min_cycle;Max_cycle;Signal;HPM_P1;HPM_P2
2022/08/03 00:00:32;;;;;;;1.92;1.75;;;;;;;;;;2101646;28;20020;-81
2022/08/03 00:01:34;;;;;;;1.75;1.20;;;;;;;;;;2101236;28;20043;-81
2022/08/03 00:02:34;;;;;;;2.90;1.67;;;;;;;;;;2100652;28;20078;-81
2022/08/03 00:03:35;;;;;;;2.08;1.60;;;;;;;;;;2108987;28;20229;-81
2022/08/03 00:04:35;;;;;;;3.03;1.88;;;;;;;;;;2118429;28;20023;-81
2022/08/03 00:05:38;;;;;;;2.47;1.60;;;;;;;;;;2117801;28;20059;-81
2022/08/03 00:06:39;;;;;;;1.70;1.60;;;;;;;;;;2108525;28;20047;-80
2022/08/03 00:07:40;;;;;;;1.70;1.58;;;;;;;;;;2109598;28;20111;-81
2022/08/03 00:08:40;;;;;;;1.40;1.23;;;;;;;;;;2118154;28;20460;-81
2022/08/03 00:09:40;;;;;;;1.58;1.48;;;;;;;;;;2109627;28;20047;-82
2022/08/03 00:10:41;;;;;;;3.30;1.42;;;;;;;;;;2101538;28;20039;-81
2022/08/03 00:11:42;;;;;;;1.40;1.30;;;;;;;;;;2108654;28;20028;-82
2022/08/03 00:12:42;;;;;;;1.90;1.50;;;;;;;;;;2118707;28;20027;-81
2022/08/03 00:13:43;;;;;;;2.05;1.70;;;;;;;;;;2118495;28;20035;-81
2022/08/03 00:14:44;;;;;;;2.20;1.90;;;;;;;;;;2117878;28;20604;-81
2022/08/03 00:15:44;;;;;;;2.55;1.50;;;;;;;;;;2108820;28;20024;-81
2022/08/03 00:16:44;;;;;;;2.03;1.58;;;;;;;;;;2110155;28;20030;-81
2022/08/03 00:17:47;;;;;;;2.35;1.92;;;;;;;;;;2119488;28;20070;-81
2022/08/03 00:18:48;;;;;;;2.13;1.38;;;;;;;;;;2121387;28;20023;-81
2022/08/03 00:19:50;;;;;;;1.63;1.40;;;;;;;;;;2123225;28;20096;-81
2022/08/03 00:20:54;;;;;;;2.13;1.70;;;;;;;;;;2123361;28;20094;-81
2022/08/03 00:21:54;;;;;;;1.70;1.35;;;;;;;;;;2123099;28;20027;-81
2022/08/03 00:22:54;;;;;;;1.73;1.63;;;;;;;;;;2122938;28;20039;-81
2022/08/03 00:23:55;;;;;;;3.05;1.77;;;;;;;;;;2122811;28;20092;-81
2022/08/03 00:24:55;;;;;;;2.05;1.70;;;;;;;;;;2121569;28;20047;-81
2022/08/03 00:25:56;;;;;;;2.13;1.40;;;;;;;;;;2114690;28;20066;-81
2022/08/03 00:26:56;;;;;;;1.80;1.42;;;;;;;;;;2106054;28;20039;-81
2022/08/03 00:27:57;;;;;;;2.13;1.40;;;;;;;;;;2114703;28;20538;-81
2022/08/03 00:28:57;;;;;;;1.90;1.60;;;;;;;;;;2122778;28;20100;-81
2022/08/03 00:29:58;;;;;;;2.20;1.42;;;;;;;;;;2122998;28;20076;-80
2022/08/03 00:30:58;;;;;;;1.70;1.60;;;;;;;;;;2122730;28;20028;-81
2022/08/03 00:31:58;;;;;;;1.75;1.40;;;;;;;;;;2123035;28;20346;-81
2022/08/03 00:32:59;;;;;;;2.35;1.58;;;;;;;;;;2122887;28;20024;-81
2022/08/03 00:34:02;;;;;;;2.47;1.85;;;;;;;;;;2122844;28;20027;-81
2022/08/03 00:35:03;;;;;;;2.33;1.58;;;;;;;;;;2112220;28;20095;-82
2022/08/03 00:36:03;;;;;;;2.22;1.48;;;;;;;;;;2112337;28;20024;-81
2022/08/03 00:37:04;;;;;;;2.20;1.50;;;;;;;;;;2120576;28;20139;-81
2022/08/03 00:38:04;;;;;;;3.28;1.77;;;;;;;;;;2120249;28;20031;-81
2022/08/03 00:39:07;;;;;;;1.70;1.38;;;;;;;;;;2120933;28;20049;-81
2022/08/03 00:40:11;;;;;;;1.40;1.30;;;;;;;;;;2120267;28;20083;-81
2022/08/03 00:41:12;;;;;;;2.33;1.42;;;;;;;;;;2119982;28;20047;-81
2022/08/03 00:42:13;;;;;;;1.63;1.17;;;;;;;;;;2119986;28;20065;-81
2022/08/03 00:43:13;;;;;;;2.25;1.90;;;;;;;;;;2111653;28;20545;-81
2022/08/03 00:44:13;;;;;;;2.35;1.50;;;;;;;;;;2120532;28;20087;-81
2022/08/03 00:45:14;;;;;;;2.42;1.90;;;;;;;;;;2120387;28;20354;-81
2022/08/03 00:46:14;;;;;;;2.00;1.48;;;;;;;;;;2119576;28;20130;-81
2022/08/03 00:47:15;;;;;;;1.80;1.67;;;;;;;;;;2119621;28;20030;-81
2022/08/03 00:48:15;;;;;;;1.77;1.67;;;;;;;;;;2111311;28;20028;-81
2022/08/03 00:49:15;;;;;;;1.85;1.67;;;;;;;;;;2120318;28;20030;-81
2022/08/03 00:50:18;;;;;;;2.42;1.60;;;;;;;;;;2120357;28;20023;-81
2022/08/03 00:51:19;;;;;;;2.08;1.40;;;;;;;;;;2120549;28;20071;-81
2022/08/03 00:52:20;;;;;;;2.25;1.65;;;;;;;;;;2119634;28;20023;-81
2022/08/03 00:53:20;;;;;;;3.13;1.40;;;;;;;;;;2119124;28;20374;-81
2022/08/03 00:54:22;;;;;;;1.50;1.33;;;;;;;;;;2119679;28;20036;-81
2022/08/03 00:55:23;;;;;;;1.50;1.38;;;;;;;;;;2119767;28;20443;-81
2022/08/03 00:56:23;;;;;;;2.13;1.58;;;;;;;;;;2119497;28;20374;-81
2022/08/03 00:57:24;;;;;;;3.30;1.45;;;;;;;;;;2119278;28;20031;-81
2022/08/03 00:58:24;;;;;;;2.35;1.48;;;;;;;;;;2118285;28;20047;-81
2022/08/03 00:59:25;;;;;;;2.00;1.30;;;;;;;;;;2118811;28;20059;-81
2022/08/03 01:00:27;;;;;;;2.53;1.65;;;;;;;;;;2110581;28;20092;-81
2022/08/03 01:01:29;;;;;;;3.20;1.45;;;;;;;;;;2110178;28;20019;-81
2022/08/03 01:02:30;;;;;;;4.13;1.73;;;;;;;;;;2118795;28;20452;-81
2022/08/03 01:03:30;;;;;;;1.58;1.40;;;;;;;;;;2110306;28;20032;-82
2022/08/03 01:04:31;;;;;;;1.98;1.42;;;;;;;;;;2119320;28;20023;-81
2022/08/03 01:05:45;;;;;;;3.58;1.60;;;;;;;;;;2119547;28;20356;-81
2022/08/03 01:06:49;;;;;;;2.30;1.13;;;;;;;;;;2119487;28;20023;-81
2022/08/03 01:08:10;;;;;;;2.75;1.70;;;;;;;;;;2118679;28;20027;-81
2022/08/03 01:09:16;;;;;;;;;;;;;;;;;;2119760;28;20061;-81
2022/08/03 01:10:41;;;;;;;2.80;1.80;;;;;;;;;;2111098;28;19919;-81
2022/08/03 01:11:57;;;;;;;1.88;1.38;;;;;;;;;;2114149;28;20024;-81
2022/08/03 01:13:16;;;;;;;2.63;2.03;;;;;;;;;;2119558;28;20331;-81
2022/08/03 01:14:23;;;;;;;2.03;1.60;;;;;;;;;;2119298;28;20034;-81
2022/08/03 01:15:39;;;;;;;4.25;1.75;;;;;;;;;;2119664;28;20032;-81
2022/08/03 01:16:43;;;;;;;2.08;1.83;;;;;;;;;;2110217;28;20114;-81
2022/08/03 01:17:52;;;;;;;2.00;1.80;;;;;;;;;;2110616;28;20027;-81
2022/08/03 01:19:11;;;;;;;2.25;1.85;;;;;;;;;;2110557;28;20028;-81
2022/08/03 01:20:13;;;;;;;2.97;1.70;;;;;;;;;;2104931;28;20024;-81
2022/08/03 01:21:49;;;;;;;2.67;1.40;;;;;;;;;;2102695;28;20027;-81
2022/08/03 01:23:07;;;;;;;4.70;1.80;;;;;;;;;;2103258;28;20170;-80
2022/08/03 01:24:45;;;;;;;2.47;1.80;;;;;;;;;;2109497;28;20533;-80
2022/08/03 01:25:48;;;;;;;2.40;1.80;;;;;;;;;;2115636;28;20038;-81
2022/08/03 01:27:01;;;;;;;1.67;1.58;;;;;;;;;;2108111;28;20094;-81
2022/08/03 01:28:11;;;;;;;3.83;1.67;;;;;;;;;;2102709;28;20048;-81
2022/08/03 01:29:41;;;;;;;1.50;1.40;;;;;;;;;;2099867;28;20028;-81
2022/08/03 01:30:44;;;;;;;4.10;1.60;;;;;;;;;;2112577;28;20054;-81
2022/08/03 01:31:56;;;;;;;2.10;1.70;;;;;;;;;;2116360;28;20372;-81
2022/08/03 01:33:04;;;;;;;2.25;1.80;;;;;;;;;;2116513;28;20019;-80
2022/08/03 01:34:08;;;;;;;2.13;1.60;;;;;;;;;;2116275;28;20451;-80
2022/08/03 01:35:14;;;;;;;1.83;1.73;;;;;;;;;;2115560;28;20087;-80
2022/08/03 01:36:23;;;;;;;2.50;1.73;;;;;;;;;;2115411;28;20026;-80
2022/08/03 01:37:35;;;;;;;2.42;1.70;;;;;;;;;;2107455;28;20024;-81
2022/08/03 01:38:42;;;;;;;2.90;2.03;;;;;;;;;;2109278;28;20367;-80
2022/08/03 01:39:44;;;;;;;1.85;1.65;;;;;;;;;;2115362;28;20612;-80
2022/08/03 01:40:50;;;;;;;3.47;1.85;;;;;;;;;;2115103;28;20096;-81
2022/08/03 01:41:58;;;;;;;2.25;1.60;;;;;;;;;;2115321;28;20027;-81
2022/08/03 01:43:02;;;;;;;1.83;1.70;;;;;;;;;;2113981;28;20056;-81
2022/08/03 01:44:06;;;;;;;2.90;1.77;;;;;;;;;;2109070;28;20090;-81
2022/08/03 01:45:10;;;;;;;2.03;1.80;;;;;;;;;;2117275;28;20028;-81
2022/08/03 01:46:13;;;;;;;2.63;1.80;;;;;;;;;;2117342;28;20426;-81
2022/08/03 01:47:15;;;;;;;4.00;1.80;;;;;;;;;;2116508;28;20087;-80
2022/08/03 01:48:16;;;;;;;4.93;2.00;;;;;;;;;;2117066;28;20504;-81
2022/08/03 01:49:17;;;;;;;3.35;1.75;;;;;;;;;;2117195;28;20584;-81
2022/08/03 01:50:25;;;;;;;2.63;1.80;;;;;;;;;;2116375;28;20028;-81
2022/08/03 01:51:27;;;;;;;3.13;2.00;;;;;;;;;;2117785;28;20034;-81
2022/08/03 01:52:30;;;;;;;2.92;1.60;;;;;;;;;;2117133;28;20023;-81
2022/08/03 01:53:33;;;;;;;2.70;1.75;;;;;;;;;;2116679;28;20103;-81
2022/08/03 01:54:36;;;;;;;2.25;1.90;;;;;;;;;;2108991;28;20032;-81
2022/08/03 01:55:37;;;;;;;3.13;1.75;;;;;;;;;;2107775;28;20032;-81
2022/08/03 01:56:40;;;;;;;5.20;2.00;;;;;;;;;;2118204;28;20039;-81
2022/08/03 01:57:43;;;;;;;2.15;1.58;;;;;;;;;;2116673;28;20409;-81
2022/08/03 01:58:45;;;;;;;1.58;1.48;;;;;;;;;;2117057;28;20071;-82
2022/08/03 01:59:47;;;;;;;3.92;1.40;;;;;;;;;;2116734;28;20043;-81
2022/08/03 02:00:50;;;;;;;2.33;2.13;;;;;;;;;;2116178;28;20611;-82
2022/08/03 02:01:52;;;;;;;1.85;1.35;;;;;;;;;;2117808;28;20059;-82
2022/08/03 02:02:54;;;;;;;1.80;1.55;;;;;;;;;;2116952;28;20050;-81
2022/08/03 02:03:58;;;;;;;2.38;1.70;;;;;;;;;;2118196;28;20024;-81
2022/08/03 02:05:00;;;;;;;2.90;1.73;;;;;;;;;;2119019;28;20403;-81
2022/08/03 02:06:01;;;;;;;3.13;1.63;;;;;;;;;;2116840;28;20163;-81
2022/08/03 02:07:02;;;;;;;1.80;1.52;;;;;;;;;;2118476;28;20092;-81
2022/08/03 02:08:04;;;;;;;2.25;1.88;;;;;;;;;;2108328;28;20027;-81
2022/08/03 02:09:06;;;;;;;2.10;1.70;;;;;;;;;;2109224;28;20020;-82
2022/08/03 02:10:10;;;;;;;2.17;1.48;;;;;;;;;;2109397;28;20035;-82
2022/08/03 02:11:11;;;;;;;3.92;1.77;;;;;;;;;;2108875;28;20024;-82
2022/08/03 02:12:13;;;;;;;2.05;1.65;;;;;;;;;;2118838;28;20031;-82
2022/08/03 02:13:16;;;;;;;2.70;1.63;;;;;;;;;;2117507;28;20050;-81
2022/08/03 02:14:18;;;;;;;1.95;1.73;;;;;;;;;;2117218;28;20100;-81
2022/08/03 02:15:20;;;;;;;3.10;1.88;;;;;;;;;;2118253;28;20027;-81
2022/08/03 02:16:23;;;;;;;1.75;1.52;;;;;;;;;;2115995;28;20051;-82
2022/08/03 02:17:26;;;;;;;1.95;1.67;;;;;;;;;;2118264;28;20023;-82
2022/08/03 02:18:28;;;;;;;2.85;1.92;;;;;;;;;;2117518;28;20030;-80
2022/08/03 02:19:30;;;;;;;2.03;1.80;;;;;;;;;;2118043;28;20028;-82
2022/08/03 02:20:32;;;;;;;3.65;1.70;;;;;;;;;;2118763;28;20054;-81
2022/08/03 02:21:36;;;;;;;2.03;1.50;;;;;;;;;;2116753;28;20031;-81
2022/08/03 02:22:41;;;;;;;3.08;1.55;;;;;;;;;;2118937;28;20028;-82
2022/08/03 02:23:41;;;;;;;2.38;1.55;;;;;;;;;;2116652;28;20028;-81
2022/08/03 02:24:42;;;;;;;2.10;1.88;;;;;;;;;;2117377;28;20038;-82
2022/08/03 02:25:51;;;;;;;3.08;1.63;;;;;;;;;;2109394;28;20066;-81
2022/08/03 02:26:55;;;;;;;2.17;1.58;;;;;;;;;;2109047;28;20133;-81
2022/08/03 02:28:00;;;;;;;2.25;1.73;;;;;;;;;;2119110;28;20035;-82
2022/08/03 02:29:05;;;;;;;2.20;1.58;;;;;;;;;;2116856;28;20027;-81
2022/08/03 02:30:08;;;;;;;5.55;1.90;;;;;;;;;;2119471;28;20032;-82
2022/08/03 02:31:14;;;;;;;2.75;1.83;;;;;;;;;;2120280;28;20016;-82
2022/08/03 02:32:18;;;;;;;2.00;1.70;;;;;;;;;;2118315;28;20019;-81
2022/08/03 02:33:25;;;;;;;1.95;1.80;;;;;;;;;;2119398;28;20077;-82
2022/08/03 02:34:30;;;;;;;1.83;1.60;;;;;;;;;;2110920;28;20093;-81
2022/08/03 02:35:33;;;;;;;2.15;1.75;;;;;;;;;;2119096;28;20047;-82
2022/08/03 02:36:38;;;;;;;3.72;1.80;;;;;;;;;;2118863;28;20028;-81
2022/08/03 02:37:46;;;;;;;1.98;1.60;;;;;;;;;;2102468;28;20021;-81
2022/08/03 02:38:49;;;;;;;2.55;1.80;;;;;;;;;;2112015;28;20455;-81
2022/08/03 02:39:52;;;;;;;3.05;2.10;;;;;;;;;;2118519;28;20035;-81
2022/08/03 02:40:56;;;;;;;2.38;1.80;;;;;;;;;;2120002;28;20033;-81
2022/08/03 02:42:01;;;;;;;2.17;1.70;;;;;;;;;;2119164;28;20034;-81
2022/08/03 02:43:06;;;;;;;2.03;1.55;;;;;;;;;;2119114;28;20370;-81
2022/08/03 02:44:08;;;;;;;4.53;1.90;;;;;;;;;;2111376;28;20108;-81
2022/08/03 02:45:13;;;;;;;2.67;1.98;;;;;;;;;;2109369;28;20081;-81
2022/08/03 02:46:18;;;;;;;5.13;1.73;;;;;;;;;;2103053;28;20090;-81
2022/08/03 02:47:20;;;;;;;2.22;1.70;;;;;;;;;;2110673;28;20161;-81
2022/08/03 02:48:29;;;;;;;3.15;2.20;;;;;;;;;;2118646;28;20024;-82
2022/08/03 02:49:31;;;;;;;2.65;1.90;;;;;;;;;;2121514;28;20032;-81
2022/08/03 02:50:32;;;;;;;3.40;2.00;;;;;;;;;;2117920;28;20039;-81
2022/08/03 02:51:35;;;;;;;5.15;2.15;;;;;;;;;;2118693;28;20031;-82
2022/08/03 02:52:37;;;;;;;3.55;2.00;;;;;;;;;;2119630;28;20097;-83
2022/08/03 02:53:39;;;;;;;5.40;1.70;;;;;;;;;;2119388;28;20486;-81
2022/08/03 02:54:40;;;;;;;2.58;1.80;;;;;;;;;;2118193;28;20023;-81
2022/08/03 02:55:41;;;;;;;2.00;1.80;;;;;;;;;;2109991;28;20024;-81
2022/08/03 02:56:43;;;;;;;3.78;1.90;;;;;;;;;;2110113;28;20062;-81
2022/08/03 02:57:45;;;;;;;4.63;1.92;;;;;;;;;;2119106;28;20035;-81
2022/08/03 02:58:50;;;;;;;1.80;1.50;;;;;;;;;;2119446;28;20236;-81
2022/08/03 02:59:52;;;;;;;2.58;1.75;;;;;;;;;;2110213;28;20188;-81
2022/08/03 03:00:53;;;;;;;4.35;1.60;;;;;;;;;;2109364;28;20067;-80
2022/08/03 03:02:02;;;;;;;3.60;1.98;;;;;;;;;;2118939;28;20028;-80
2022/08/03 03:03:04;;;;;;;2.38;1.58;;;;;;;;;;2120716;28;20111;-80
2022/08/03 03:04:05;;;;;;;2.65;1.90;;;;;;;;;;2118339;28;20118;-81
2022/08/03 03:05:06;;;;;;;2.88;1.73;;;;;;;;;;2119183;28;20023;-82
2022/08/03 03:06:09;;;;;;;2.15;1.75;;;;;;;;;;2116832;28;20031;-81
2022/08/03 03:07:12;;;;;;;2.22;1.90;;;;;;;;;;2118213;28;20095;-80
2022/08/03 03:08:15;;;;;;;4.20;1.60;;;;;;;;;;2109495;28;20023;-80
2022/08/03 03:09:16;;;;;;;1.85;1.67;;;;;;;;;;2118499;28;20085;-81
2022/08/03 03:10:17;;;;;;;3.28;2.50;;;;;;;;;;2118172;28;20055;-81
2022/08/03 03:11:20;;;;;;;2.08;1.80;;;;;;;;;;2108543;28;20016;-80
2022/08/03 03:12:21;;;;;;;2.55;1.70;;;;;;;;;;2110020;28;20024;-81
2022/08/03 03:13:22;;;;;;;3.25;1.90;;;;;;;;;;2118015;28;20068;-80
2022/08/03 03:14:23;;;;;;;2.92;1.90;;;;;;;;;;2118071;28;20078;-80
2022/08/03 03:15:26;;;;;;;2.47;1.60;;;;;;;;;;2118341;28;20027;-80
2022/08/03 03:16:29;;;;;;;3.47;1.83;;;;;;;;;;2117567;28;20124;-80
2022/08/03 03:17:30;;;;;;;2.40;1.83;;;;;;;;;;2109164;28;20043;-81
2022/08/03 03:18:33;;;;;;;4.00;1.88;;;;;;;;;;2110405;28;20578;-81
2022/08/03 03:19:34;;;;;;;4.50;2.10;;;;;;;;;;2118819;28;20474;-81
2022/08/03 03:20:36;;;;;;;6.72;2.00;;;;;;;;;;2110884;28;20077;-82
2022/08/03 03:21:37;;;;;;;3.60;1.83;;;;;;;;;;2110337;28;20509;-81
2022/08/03 03:22:39;;;;;;;5.25;1.73;;;;;;;;;;2120029;28;20031;-82
2022/08/03 03:23:47;;;;;;;2.45;1.73;;;;;;;;;;2119787;28;20119;-81
2022/08/03 03:24:50;;;;;;;4.18;1.70;;;;;;;;;;2119253;28;20383;-81
2022/08/03 03:25:54;;;;;;;4.85;2.13;;;;;;;;;;2118786;27;20024;-81
2022/08/03 03:26:56;;;;;;;4.88;2.15;;;;;;;;;;2124081;27;20339;-82
2022/08/03 03:27:58;;;;;;;4.70;2.00;;;;;;;;;;2109989;28;20060;-82
2022/08/03 03:29:00;;;;;;;3.22;1.80;;;;;;;;;;2110193;28;20042;-82
2022/08/03 03:30:03;;;;;;;2.85;1.60;;;;;;;;;;2110316;28;20089;-81
2022/08/03 03:31:05;;;;;;;1.95;1.70;;;;;;;;;;2102443;28;20044;-81
2022/08/03 03:32:06;;;;;;;3.17;1.90;;;;;;;;;;2109819;28;20028;-81
2022/08/03 03:33:06;;;;;;;4.68;1.92;;;;;;;;;;2118696;28;20035;-81
2022/08/03 03:34:07;;;;;;;3.22;2.00;;;;;;;;;;2118298;28;20024;-81
2022/08/03 03:35:08;;;;;;;3.83;1.80;;;;;;;;;;2118188;28;20398;-82
2022/08/03 03:36:10;;;;;;;2.13;1.92;;;;;;;;;;2118753;28;20033;-81
2022/08/03 03:37:10;;;;;;;4.82;2.00;;;;;;;;;;2118766;28;20088;-81
2022/08/03 03:38:11;;;;;;;2.60;1.63;;;;;;;;;;2118294;28;20030;-82
2022/08/03 03:39:11;;;;;;;4.03;1.88;;;;;;;;;;2118537;28;20023;-81
2022/08/03 03:40:13;;;;;;;2.65;1.70;;;;;;;;;;2109030;28;20035;-82
2022/08/03 03:41:13;;;;;;;3.72;2.22;;;;;;;;;;2109637;28;20027;-82
2022/08/03 03:42:14;;;;;;;2.65;1.70;;;;;;;;;;2118118;28;20031;-81
2022/08/03 03:43:17;;;;;;;3.22;2.13;;;;;;;;;;2109930;28;20039;-82
2022/08/03 03:44:17;;;;;;;4.65;2.20;;;;;;;;;;2110320;28;20024;-82
2022/08/03 03:45:19;;;;;;;3.47;2.13;;;;;;;;;;2118310;28;20051;-82
2022/08/03 03:46:20;;;;;;;4.28;2.20;;;;;;;;;;2109147;28;20023;-82
2022/08/03 03:47:20;;;;;;;4.88;2.42;;;;;;;;;;2101057;28;20024;-81
2022/08/03 03:48:22;;;;;;;2.83;1.95;;;;;;;;;;2110104;28;20028;-82
2022/08/03 03:49:24;;;;;;;3.50;1.90;;;;;;;;;;2110092;28;20114;-81
2022/08/03 03:50:26;;;;;;;4.60;1.85;;;;;;;;;;2109537;28;20085;-82
2022/08/03 03:51:26;;;;;;;4.28;2.10;;;;;;;;;;2108843;28;20031;-82
2022/08/03 03:52:27;;;;;;;5.32;2.10;;;;;;;;;;2109233;28;20099;-81
2022/08/03 03:53:27;;;;;;;2.35;2.15;;;;;;;;;;2109437;28;20031;-81
2022/08/03 03:54:44;;;;;;;4.22;2.47;;;;;;;;;;2101657;28;20057;-82
2022/08/03 03:55:45;;;;;;;2.55;1.95;;;;;;;;;;2111649;28;20034;-82
2022/08/03 03:56:45;;;;;;;3.45;1.67;;;;;;;;;;2119436;28;20038;-81
2022/08/03 03:57:46;;;;;;;3.90;2.20;;;;;;;;;;2118962;28;20028;-82
2022/08/03 03:58:48;;;;;;;2.53;1.92;;;;;;;;;;2109959;28;20085;-82
2022/08/03 03:59:51;;;;;;;2.05;1.85;;;;;;;;;;2110405;28;20028;-81
2022/08/03 04:00:52;;;;;;;2.88;1.92;;;;;;;;;;2110410;28;20023;-81
2022/08/03 04:01:53;;;;;;;1.90;1.70;;;;;;;;;;2110493;28;20363;-82
2022/08/03 04:02:53;;;;;;;2.63;2.00;;;;;;;;;;2101214;28;20029;-81
2022/08/03 04:03:58;;;;;;;3.28;2.33;;;;;;;;;;2109788;28;20071;-82
2022/08/03 04:11:18;;;;;;;5.03;2.05;;;;;;;;;;2118209;28;20049;-81
2022/08/03 04:12:21;;;;;;;3.10;2.10;;;;;;;;;;2076577;28;20037;-82
2022/08/03 04:13:22;;;;;;;2.92;2.50;;;;;;;;;;2118603;28;20410;-82
2022/08/03 04:14:34;;;;;;;2.97;2.00;;;;;;;;;;2118571;28;20023;-82
2022/08/03 04:15:37;;;;;;;3.28;2.13;;;;;;;;;;2110405;28;20027;-82
2022/08/03 04:16:40;;;;;;;3.80;2.20;;;;;;;;;;2109852;28;20020;-82
2022/08/03 04:17:42;;;;;;;2.67;2.30;;;;;;;;;;2110475;28;20031;-82
2022/08/03 04:18:48;;;;;;;2.45;2.20;;;;;;;;;;2109493;28;20032;-82
2022/08/03 04:19:51;;;;;;;3.60;2.13;;;;;;;;;;2109956;28;20020;-82
2022/08/03 04:20:54;;;;;;;4.43;2.33;;;;;;;;;;2102407;28;20028;-82
2022/08/03 04:21:59;;;;;;;4.40;2.10;;;;;;;;;;2110993;28;20111;-81
2022/08/03 04:23:00;;;;;;;3.40;2.22;;;;;;;;;;2118872;28;20027;-81
2022/08/03 04:24:04;;;;;;;3.15;2.65;;;;;;;;;;2110343;28;20017;-81
2022/08/03 04:25:36;;;;;;;5.40;2.20;;;;;;;;;;2105791;28;20022;-81
2022/08/03 04:26:39;;;;;;;3.85;2.55;;;;;;;;;;2103120;28;20067;-83
2022/08/03 04:27:40;;;;;;;4.13;2.40;;;;;;;;;;2108146;28;20020;-83
2022/08/03 04:28:44;;;;;;;2.90;2.47;;;;;;;;;;2107962;28;20062;-82
2022/08/03 04:29:48;;;;;;;4.03;2.83;;;;;;;;;;2107921;28;20083;-84
2022/08/03 04:30:49;;;;;;;4.85;2.80;;;;;;;;;;2107386;28;20024;-83
2022/08/03 04:31:53;;;;;;;3.65;2.42;;;;;;;;;;2114920;28;20035;-83
2022/08/03 04:32:56;;;;;;;3.67;2.47;;;;;;;;;;2106094;28;20016;-84
2022/08/03 04:33:56;;;;;;;2.67;2.47;;;;;;;;;;2106644;28;20036;-84
2022/08/03 04:34:57;;;;;;;5.88;2.65;;;;;;;;;;2115414;28;20027;-84
2022/08/03 04:36:00;;;;;;;3.95;2.92;;;;;;;;;;2115437;28;20019;-83
2022/08/03 04:37:08;;;;;;;3.80;2.58;;;;;;;;;;2115448;28;20072;-84
2022/08/03 04:38:13;;;;;;;6.95;3.05;;;;;;;;;;2106209;28;20669;-83
2022/08/03 04:39:25;;;;;;;4.72;3.00;;;;;;;;;;2098346;28;20361;-83
2022/08/03 04:40:38;;;;;;;3.70;2.67;;;;;;;;;;2102397;28;20032;-83
2022/08/03 04:41:39;;;;;;;5.07;2.40;;;;;;;;;;2109597;28;20020;-82
2022/08/03 04:42:41;;;;;;;4.15;2.50;;;;;;;;;;2114592;28;20034;-82
2022/08/03 04:43:43;;;;;;;3.10;2.30;;;;;;;;;;2110861;28;20028;-83
2022/08/03 04:44:53;;;;;;;2.95;2.08;;;;;;;;;;2106169;28;20096;-84
2022/08/03 04:45:55;;;;;;;5.07;2.42;;;;;;;;;;2106734;28;20463;-83
2022/08/03 04:46:56;;;;;;;3.15;2.47;;;;;;;;;;2113052;28;20375;-81
2022/08/03 04:47:57;;;;;;;5.38;2.83;;;;;;;;;;2121531;27;20035;-81
2022/08/03 04:48:59;;;;;;;6.13;2.63;;;;;;;;;;2127253;27;20042;-82
2022/08/03 04:50:01;;;;;;;3.03;2.60;;;;;;;;;;2121258;27;20028;-81
2022/08/03 04:51:03;;;;;;;4.05;2.55;;;;;;;;;;2110899;28;20023;-81
2022/08/03 04:52:37;;;;;;;2.90;2.35;;;;;;;;;;2110289;28;20031;-80
2022/08/03 04:54:20;;;;;;;;;;;;;;;;;;;;;
2022/08/03 04:56:23;;;;;;;2.65;2.20;;;;;;;;;;2110536;28;20031;-81
2022/08/03 04:57:32;;;;;;;3.38;2.50;;;;;;;;;;2118552;28;20027;-82
2022/08/03 04:59:16;;;;;;;4.43;2.65;;;;;;;;;;2118806;28;20027;-81
2022/08/03 05:00:49;;;;;;;;;;;;;;;;;;;;;
2022/08/03 05:01:55;;;;;;;3.53;2.50;;;;;;;;;;2116205;27;20030;-81
2022/08/03 05:03:30;;;;;;;5.85;2.72;;;;;;;;;;2118052;28;20075;-81
2022/08/03 05:04:45;;;;;;;3.95;2.60;;;;;;;;;;2110294;28;20030;-81
2022/08/03 05:06:37;;;;;;;4.35;2.75;;;;;;;;;;2105782;28;20093;-81
2022/08/03 05:08:15;;;;;;;6.75;2.53;;;;;;;;;;2124271;27;20042;-81
2022/08/03 05:09:35;;;;;;;4.15;2.63;;;;;;;;;;2125902;27;20039;-81
2022/08/03 05:13:56;;;;;;;3.78;2.42;;;;;;;;;;2094256;28;20040;-81
2022/08/03 05:15:04;;;;;;;6.95;3.25;;;;;;;;;;2098741;28;20045;-81
2022/08/03 05:17:00;;;;;;;4.03;2.47;;;;;;;;;;2106272;28;20076;-82
2022/08/03 05:18:54;;;;;;;6.47;3.05;;;;;;;;;;2100206;28;20043;-81
2022/08/03 05:20:12;;;;;;;5.78;3.20;;;;;;;;;;2090871;28;20368;-82
2022/08/03 05:21:43;;;;;;;;;;;;;;;;;;;;;
2022/08/03 05:24:58;;;;;;;4.72;2.90;;;;;;;;;;2075151;28;20158;-81
2022/08/03 05:26:23;;;;;;;;;;;;;;;;;;;;;
2022/08/03 05:27:51;;;;;;;4.93;2.28;;;;;;;;;;2096949;28;20423;-82
2022/08/03 05:30:38;;;;;;;3.03;2.72;;;;;;;;;;2097168;28;20097;-82
2022/08/03 05:32:00;;;;;;;6.03;3.00;;;;;;;;;;2104334;28;20036;-82
2022/08/03 05:33:05;;;;;;;2.92;2.58;;;;;;;;;;2098866;28;20025;-82
2022/08/03 05:37:19;;;;;;;4.47;2.67;;;;;;;;;;2106199;28;20039;-82
2022/08/03 05:38:18;;;;;;;4.25;2.55;;;;;;;;;;2088344;28;20112;-82
2022/08/03 05:39:45;;;;;;;4.45;2.67;;;;;;;;;;2102988;28;20032;-82
2022/08/03 05:40:54;;;;;;;3.72;2.58;;;;;;;;;;2099391;28;20028;-81
2022/08/03 05:42:09;;;;;;;3.13;2.50;;;;;;;;;;2107174;28;20016;-81
2022/08/03 05:43:42;;;;;;;3.40;2.55;;;;;;;;;;2112014;28;20102;-81
2022/08/03 05:46:32;;;;;;;3.67;2.40;;;;;;;;;;2120952;28;20394;-81
2022/08/03 05:48:01;;;;;;;8.32;2.60;;;;;;;;;;2125532;28;20141;-81
2022/08/03 05:49:24;;;;;;;7.43;3.42;;;;;;;;;;2124829;28;20454;-81
2022/08/03 05:51:06;;;;;;;5.82;2.92;;;;;;;;;;2117381;28;20091;-82
2022/08/03 05:52:30;;;;;;;;;;;;;;;;;;;;;
2022/08/03 05:54:24;;;;;;;6.15;2.90;;;;;;;;;;2126853;28;20242;-82
2022/08/03 05:57:07;;;;;;;4.50;2.72;;;;;;;;;;2115210;28;20062;-81
2022/08/03 05:58:51;;;;;;;4.55;2.70;;;;;;;;;;2119343;27;20023;-81
2022/08/03 06:00:06;;;;;;;4.00;2.92;;;;;;;;;;2113409;28;20030;-81
2022/08/03 06:01:48;;;;;;;2.78;2.53;;;;;;;;;;2107660;28;20032;-83
2022/08/03 06:03:20;;;;;;;;;;;;;;;;;;;;;
2022/08/03 06:04:48;;;;;;;3.90;2.42;;;;;;;;;;2119153;28;20034;-83
2022/08/03 06:06:14;;;;;;;4.47;2.78;;;;;;;;;;2111637;28;20086;-83
2022/08/03 06:07:45;;;;;;;4.38;2.80;;;;;;;;;;2116233;28;20016;-83
2022/08/03 06:09:14;;;;;;;;;;;;;;;;;;2111624;28;20024;-83
2022/08/03 06:10:45;;;;;;;3.08;2.78;;;;;;;;;;2115479;28;19908;-82
2022/08/03 06:12:09;;;;;;;3.17;2.88;;;;;;;;;;2111466;28;20028;-83
2022/08/03 06:13:28;;;;;;;5.63;2.95;;;;;;;;;;2119715;27;20031;-83
2022/08/03 06:15:16;;;;;;;3.20;2.90;;;;;;;;;;2111874;28;20028;-84
2022/08/03 06:16:47;;;;;;;3.85;2.70;;;;;;;;;;2110923;28;20031;-82
2022/08/03 06:18:07;;;;;;;5.05;3.05;;;;;;;;;;2117009;28;20031;-82
